Date,TemperatureHighF,TemperatureAvgF,TemperatureLowF,DewpointHighF,DewpointAvgF,DewpointLowF,HumidityHigh,HumidityAvg,HumidityLow,PressureMaxIn,PressureMinIn,WindSpeedMaxMPH,WindSpeedAvgMPH,GustSpeedMaxMPH,PrecipitationSumIn
2013-2-1,34,28,20,-100,-100,-100,0,0,100,30.02,29.44,0,-999,0,0.00
2013-2-2,30,23,18,-100,-100,-100,0,0,100,30.20,30.02,0,-999,0,0.00
2013-2-3,29,27,24,-100,-100,-100,0,0,100,30.03,29.67,0,-999,0,0.00
2013-2-4,30,26,22,-100,-100,-100,0,0,100,29.86,29.65,0,-999,0,0.00
2013-2-5,28,22,18,-100,-100,-100,0,0,100,30.02,29.86,0,-999,0,0.00
2013-2-6,37,30,24,-100,-100,-100,0,0,100,30.26,29.92,0,-999,0,0.00
2013-2-7,24,20,16,-100,-100,-100,0,0,100,30.54,30.26,0,-999,0,0.00
2013-2-8,29,24,18,-100,-100,-100,0,0,100,30.52,29.78,0,-999,0,0.00
2013-2-9,24,20,17,-100,-100,-100,0,0,100,30.06,29.60,0,-999,0,0.00
2013-2-10,37,27,19,-100,-100,-100,0,0,100,30.34,30.11,0,-999,0,0.00
2013-2-11,43,35,30,-100,-100,-100,0,0,100,30.32,29.56,0,-999,0,0.00
2013-2-12,43,38,33,-100,-100,-100,0,0,100,29.76,29.52,0,-999,0,0.00
2013-2-13,40,37,34,-100,-100,-100,0,0,100,29.81,29.69,0,-999,0,0.00
2013-2-14,40,37,34,-100,-100,-100,0,0,100,29.97,29.68,0,-999,0,0.00
2013-2-15,44,40,36,-100,-100,-100,0,0,100,29.97,29.87,0,-999,0,0.00
2013-2-16,39,35,31,-100,-100,-100,0,0,100,29.92,29.73,0,-999,0,0.00
2013-2-17,31,25,21,-100,-100,-100,0,0,100,29.73,29.16,0,-999,0,0.00
2013-2-18,34,25,19,-100,-100,-100,0,0,100,30.04,29.46,0,-999,0,0.00
2013-2-19,45,34,26,-100,-100,-100,0,0,100,30.09,29.53,0,-999,0,0.00
2013-2-20,44,36,30,-100,-100,-100,0,0,100,29.62,29.41,0,-999,0,0.00
2013-2-21,33,28,25,-100,-100,-100,0,0,100,30.10,29.65,0,-999,0,0.00
2013-2-22,37,34,31,-100,-100,-100,0,0,100,30.36,30.10,0,-999,0,0.00
2013-2-23,38,36,34,-100,-100,-100,0,0,100,30.33,29.98,0,-999,0,0.00
2013-2-24,38,34,30,-100,-100,-100,0,0,100,29.98,29.74,0,-999,0,0.00
2013-2-25,38,34,30,-100,-100,-100,0,0,100,30.22,29.86,0,-999,0,0.00
2013-2-26,40,38,36,-100,-100,-100,0,0,100,30.34,30.21,0,-999,0,0.00
2013-2-27,41,38,35,-100,-100,-100,0,0,100,30.21,29.56,0,-999,0,0.00
2013-2-28,43,38,35,-100,-100,-100,0,0,100,29.59,29.49,0,-999,0,0.00